LFRB/BES METAR and TAF weather

Enter ICAO airport designator
Station Type Date Time Source
LFRB METAR 2021/06/22 23:00 UTC NOAA

LFRB 222300Z AUTO 34005KT CAVOK 11/10 Q1024 NOSIG


Station Type Date Time Source
LFRB Decoded METAR 2021/06/22 23:00 UTC NOAA

Brest, France (LFRB) 48-27N 004-25W 103M
Jun 22, 2021 - 07:00 PM EDT / 2021.06.22 2300 UTC
Wind: from the NNW (340 degrees) at 6 MPH (5 KT):0
Visibility: greater than 7 mile(s):0
Temperature: 51 F (11 C)
Dew Point: 50 F (10 C)
Relative Humidity: 93%
Pressure (altimeter): 30.24 in. Hg (1024 hPa)
ob: LFRB 222300Z AUTO 34005KT CAVOK 11/10 Q1024 NOSIG
cycle: 23

Station Type Date Time Source
LFRB TAF 2021/06/22 18:21 UTC NOAA

TAF LFRB 221700Z 2218/2324 01010KT 9999 BKN025 PROB30
TEMPO 2302/2306 4000 BR PROB40
TEMPO 2310/2317 03015G25KT

Example: see airport list